Time;durP1;ratioP1;P1;durP2;ratioP2;P2;SDS_P1;SDS_P2;PMS_P1;PMS_P2;Temp;Humidity;BMP_temperature;BMP_pressure;BME280_temperature;BME280_humidity;BME280_pressure;Samples;Min_cycle;Max_cycle;Signal;HPM_P1;HPM_P2
2022/07/17 00:00:24;;;;;;;24.27;21.70;;;;;;;21.14;100.00;100234.51;1776930;80;21074;-54
2022/07/17 00:02:52;;;;;;;23.60;21.10;;;;;;;20.94;100.00;100242.27;1775380;78;21086;-56
2022/07/17 00:05:21;;;;;;;23.57;21.07;;;;;;;20.97;100.00;100235.15;1765959;79;21207;-55
2022/07/17 00:07:49;;;;;;;22.67;20.23;;;;;;;21.21;100.00;100234.27;1767849;80;21478;-55
2022/07/17 00:10:17;;;;;;;23.90;21.07;;;;;;;21.32;100.00;100229.31;1765103;80;21143;-57
2022/07/17 00:12:44;;;;;;;23.43;20.90;;;;;;;21.08;100.00;100237.36;1768508;80;21006;-56
2022/07/17 00:15:12;;;;;;;21.07;18.87;;;;;;;21.01;100.00;100234.91;1753807;80;21048;-55
2022/07/17 00:17:40;;;;;;;23.10;20.67;;;;;;;20.99;100.00;100233.59;1768823;80;21493;-57
2022/07/17 00:20:09;;;;;;;20.90;18.70;;;;;;;21.05;100.00;100237.33;1729408;82;21083;-56
2022/07/17 00:22:36;;;;;;;23.40;20.10;;;;;;;21.14;100.00;100235.03;1727736;82;21466;-58
2022/07/17 00:25:06;;;;;;;20.90;18.70;;;;;;;21.22;100.00;100233.23;1727646;82;21063;-55
2022/07/17 00:27:33;;;;;;;22.83;19.90;;;;;;;21.19;100.00;100234.27;1725803;82;21119;-56
2022/07/17 00:30:00;;;;;;;22.13;19.17;;;;;;;21.18;100.00;100237.98;1714753;83;21614;-56
2022/07/17 00:32:28;;;;;;;20.37;17.93;;;;;;;21.16;100.00;100237.42;1715341;83;20932;-56
2022/07/17 00:34:56;;;;;;;22.77;20.20;;;;;;;21.15;100.00;100235.30;1711063;83;21337;-61
2022/07/17 00:37:23;;;;;;;21.03;18.83;;;;;;;21.15;100.00;100241.93;1705202;83;21495;-56
2022/07/17 00:39:50;;;;;;;21.37;19.10;;;;;;;21.15;100.00;100235.30;1713123;83;21056;-56
2022/07/17 00:42:17;;;;;;;19.57;17.67;;;;;;;21.14;100.00;100235.83;1711047;83;21482;-55
2022/07/17 00:44:44;;;;;;;21.50;19.20;;;;;;;21.11;100.00;100238.19;1706453;83;21513;-62
2022/07/17 00:47:17;;;;;;;21.83;19.63;;;;;;;21.13;100.00;100240.84;1707622;83;20999;-55
2022/07/17 00:49:44;;;;;;;24.00;21.03;;;;;;;21.13;100.00;100241.37;1702754;83;21122;-57
2022/07/17 00:52:12;;;;;;;21.73;19.43;;;;;;;21.25;100.00;100243.34;1736116;82;21079;-56
2022/07/17 00:54:40;;;;;;;27.17;20.70;;;;;;;21.28;100.00;100241.48;1713851;83;21143;-57
2022/07/17 00:57:10;;;;;;;24.10;21.43;;;;;;;21.31;100.00;100236.20;1714703;82;21011;-58
2022/07/17 00:59:39;;;;;;;23.45;20.85;;;;;;;21.29;100.00;100233.83;1702524;82;21066;-58
2022/07/17 01:02:07;;;;;;;49.90;36.57;;;;;;;21.31;100.00;100240.19;1725537;82;21530;-55
2022/07/17 01:04:34;;;;;;;84.07;53.67;;;;;;;21.28;100.00;100243.34;1710770;82;20988;-56
2022/07/17 01:07:03;;;;;;;72.70;47.40;;;;;;;21.28;100.00;100244.66;1699577;82;21576;-55
2022/07/17 01:09:32;;;;;;;83.27;52.30;;;;;;;21.24;100.00;100248.34;1706765;83;21866;-56
2022/07/17 01:12:00;;;;;;;58.27;40.03;;;;;;;21.20;100.00;100250.44;1713186;82;21523;-57
2022/07/17 01:14:27;;;;;;;47.80;33.67;;;;;;;21.12;100.00;100249.85;1718985;81;21084;-55
2022/07/17 01:16:54;;;;;;;40.93;30.57;;;;;;;21.03;100.00;100245.28;1734592;81;21552;-61
2022/07/17 01:19:22;;;;;;;43.47;31.13;;;;;;;21.02;100.00;100248.43;1720063;82;21153;-59
2022/07/17 01:21:50;;;;;;;56.40;39.17;;;;;;;21.00;100.00;100253.20;1718120;82;21317;-57
2022/07/17 01:24:19;;;;;;;54.33;34.73;;;;;;;20.98;100.00;100253.96;1727853;82;21473;-56
2022/07/17 01:26:49;;;;;;;43.50;29.97;;;;;;;20.96;100.00;100257.41;1723542;82;21013;-55
2022/07/17 01:29:17;;;;;;;37.57;27.07;;;;;;;21.02;100.00;100256.38;1725110;82;21412;-58
2022/07/17 01:31:44;;;;;;;26.07;21.77;;;;;;;21.03;100.00;100265.95;1723227;81;21648;-56
2022/07/17 01:34:16;;;;;;;23.83;19.57;;;;;;;21.01;100.00;100260.09;1727695;82;21522;-55
2022/07/17 01:36:41;;;;;;;23.30;20.10;;;;;;;20.99;100.00;100262.73;1733801;82;21454;-57
2022/07/17 01:39:08;;;;;;;20.33;15.77;;;;;;;20.94;100.00;100266.12;1720858;82;21126;-58
2022/07/17 01:41:36;;;;;;;21.73;17.53;;;;;;;20.95;100.00;100265.09;1730902;82;21060;-56
2022/07/17 01:44:04;;;;;;;30.30;22.17;;;;;;;21.00;100.00;100259.03;1719968;82;21277;-56
2022/07/17 01:46:31;;;;;;;34.93;26.83;;;;;;;20.80;100.00;100263.09;1729258;82;21057;-56
2022/07/17 01:49:00;;;;;;;28.83;22.63;;;;;;;20.84;100.00;100266.05;1719577;81;21652;-55
2022/07/17 01:51:28;;;;;;;35.23;24.90;;;;;;;20.92;100.00;100269.56;1721231;82;21572;-56
2022/07/17 01:53:55;;;;;;;31.60;24.97;;;;;;;20.77;100.00;100268.88;1730303;82;21435;-56
2022/07/17 01:56:23;;;;;;;38.97;27.33;;;;;;;20.83;100.00;100264.42;1723545;82;21254;-57
2022/07/17 01:58:50;;;;;;;39.87;30.30;;;;;;;20.87;100.00;100269.49;1714716;82;21085;-56
2022/07/17 02:01:18;;;;;;;52.07;34.10;;;;;;;20.90;100.00;100268.47;1733231;82;21075;-57
2022/07/17 02:03:45;;;;;;;41.17;29.17;;;;;;;20.89;100.00;100269.52;1731914;81;21074;-57
2022/07/17 02:06:12;;;;;;;31.90;24.67;;;;;;;20.81;100.00;100272.63;1703344;83;22100;-55
2022/07/17 02:08:40;;;;;;;38.20;28.80;;;;;;;20.80;100.00;100274.22;1710057;83;21694;-55
2022/07/17 02:11:07;;;;;;;53.47;34.83;;;;;;;20.80;100.00;100272.36;1707376;82;21110;-63
2022/07/17 02:13:35;;;;;;;37.63;27.20;;;;;;;20.85;100.00;100271.61;1722889;82;21283;-56
2022/07/17 02:16:03;;;;;;;30.40;21.90;;;;;;;20.82;100.00;100273.42;1718463;82;21135;-55
2022/07/17 02:18:31;;;;;;;29.53;21.40;;;;;;;20.76;100.00;100275.73;1707424;83;22014;-55
2022/07/17 02:20:59;;;;;;;30.10;22.90;;;;;;;20.72;100.00;100271.99;1729097;82;21240;-56
2022/07/17 02:23:28;;;;;;;37.80;27.57;;;;;;;20.68;100.00;100273.54;1705174;83;21473;-56
2022/07/17 02:25:56;;;;;;;68.83;44.90;;;;;;;20.64;100.00;100268.73;1702074;83;21600;-56
2022/07/17 02:28:22;;;;;;;73.37;47.00;;;;;;;20.58;100.00;100271.08;1704028;83;21076;-55
2022/07/17 02:30:51;;;;;;;73.77;44.87;;;;;;;20.52;100.00;100270.73;1709051;83;21554;-55
2022/07/17 02:33:19;;;;;;;80.47;48.67;;;;;;;20.51;100.00;100268.34;1712380;82;21155;-57
2022/07/17 02:35:47;;;;;;;77.80;49.80;;;;;;;20.53;100.00;100269.70;1697522;83;22095;-57
2022/07/17 02:38:14;;;;;;;86.83;50.03;;;;;;;20.55;100.00;100269.45;1716799;83;21520;-56
2022/07/17 02:40:41;;;;;;;65.63;40.20;;;;;;;20.48;100.00;100273.57;1717549;83;21823;-57
2022/07/17 02:43:09;;;;;;;59.10;37.07;;;;;;;20.49;100.00;100273.05;1694124;83;21032;-56
2022/07/17 02:45:37;;;;;;;49.70;32.63;;;;;;;20.53;100.00;100277.65;1719931;82;21446;-55
2022/07/17 02:48:04;;;;;;;43.70;29.53;;;;;;;20.61;100.00;100277.73;1723916;82;21369;-62
2022/07/17 02:50:32;;;;;;;39.77;28.57;;;;;;;20.62;100.00;100278.00;1723498;82;21044;-56
2022/07/17 02:52:59;;;;;;;30.03;21.37;;;;;;;20.68;100.00;100276.19;1724668;82;21818;-56
2022/07/17 02:55:26;;;;;;;25.47;20.03;;;;;;;20.76;100.00;100278.39;1726396;81;21961;-58
2022/07/17 02:57:53;;;;;;;22.90;16.40;;;;;;;20.84;100.00;100268.69;1722901;82;22384;-55
2022/07/17 03:00:21;;;;;;;18.27;15.83;;;;;;;20.96;100.00;100259.27;1733483;82;21494;-57
2022/07/17 03:02:49;;;;;;;15.90;13.67;;;;;;;21.00;100.00;100262.47;1722097;82;21407;-62
2022/07/17 03:05:16;;;;;;;15.10;13.47;;;;;;;21.04;100.00;100259.59;1723401;80;21311;-58
2022/07/17 03:07:45;;;;;;;14.60;13.10;;;;;;;20.95;100.00;100263.77;1773173;79;21041;-56
2022/07/17 03:10:13;;;;;;;14.33;12.70;;;;;;;21.08;100.00;100263.86;1772239;79;21192;-57
2022/07/17 03:12:42;;;;;;;15.77;13.13;;;;;;;21.18;100.00;100259.19;1761471;79;21060;-55
2022/07/17 03:15:10;;;;;;;15.73;13.93;;;;;;;21.27;100.00;100257.66;1770511;78;21476;-56
2022/07/17 03:17:39;;;;;;;15.03;13.63;;;;;;;21.40;100.00;100264.40;1780879;78;21351;-55
2022/07/17 03:20:08;;;;;;;14.70;13.20;;;;;;;21.54;100.00;100262.38;1778357;78;21543;-57
2022/07/17 03:22:35;;;;;;;14.43;12.93;;;;;;;21.83;100.00;100259.39;1784240;79;21153;-56
2022/07/17 03:25:02;;;;;;;14.57;13.07;;;;;;;22.04;100.00;100262.39;1774151;78;21528;-56
2022/07/17 03:27:29;;;;;;;15.53;13.30;;;;;;;22.19;100.00;100263.02;1770370;78;21828;-57
2022/07/17 03:29:57;;;;;;;15.20;13.50;;;;;;;22.57;100.00;100253.84;1785377;79;21493;-56
2022/07/17 03:32:24;;;;;;;15.20;13.30;;;;;;;22.99;100.00;100253.39;1768521;78;21486;-57
2022/07/17 03:34:51;;;;;;;14.53;13.13;;;;;;;23.31;100.00;100250.48;1774478;78;22204;-57
2022/07/17 03:37:18;;;;;;;14.50;13.00;;;;;;;23.63;100.00;100250.15;1776277;78;22017;-56
2022/07/17 03:39:46;;;;;;;15.83;14.23;;;;;;;23.86;100.00;100243.45;1777327;78;21587;-56
2022/07/17 03:42:14;;;;;;;15.07;13.03;;;;;;;24.16;100.00;100247.08;1785551;79;21017;-57
2022/07/17 03:44:42;;;;;;;16.10;14.40;;;;;;;24.94;100.00;100243.71;1763378;79;21325;-56
2022/07/17 03:47:10;;;;;;;14.87;13.47;;;;;;;25.83;100.00;100238.09;1775121;79;21230;-57
2022/07/17 03:49:38;;;;;;;14.73;13.27;;;;;;;26.41;100.00;100236.57;1773947;79;21019;-58
2022/07/17 03:52:05;;;;;;;17.97;14.50;;;;;;;26.64;100.00;100228.25;1763874;78;20974;-58
2022/07/17 03:54:32;;;;;;;14.40;13.08;;;;;;;26.68;100.00;100223.91;1758506;78;21092;-62
2022/07/17 03:57:03;;;;;;;15.68;13.43;;;;;;;27.00;100.00;100224.99;1772637;78;20993;-57
2022/07/17 03:59:30;;;;;;;13.22;11.20;;;;;;;27.65;100.00;100212.86;1759965;78;21904;-57
2022/07/17 04:01:57;;;;;;;11.88;10.65;;;;;;;28.57;100.00;100205.59;1785403;79;20943;-57
2022/07/17 04:04:24;;;;;;;10.78;9.78;;;;;;;29.38;100.00;100204.66;1765968;79;21012;-59
2022/07/17 04:06:51;;;;;;;11.38;10.00;;;;;;;29.98;100.00;100222.88;1755138;79;21080;-57
2022/07/17 04:09:19;;;;;;;10.78;9.33;;;;;;;30.19;100.00;100225.23;1744427;80;21451;-57
2022/07/17 04:11:47;;;;;;;10.98;9.98;;;;;;;30.17;100.00;100230.13;1745397;79;21264;-57
2022/07/17 04:14:16;;;;;;;11.67;10.57;;;;;;;29.70;100.00;100232.53;1741282;81;21015;-57
2022/07/17 04:16:43;;;;;;;11.63;10.55;;;;;;;28.93;100.00;100229.66;1753157;79;21499;-63
2022/07/17 04:19:11;;;;;;;10.20;9.10;;;;;;;28.31;100.00;100226.25;1755990;81;21891;-58
2022/07/17 04:21:38;;;;;;;11.15;9.95;;;;;;;28.20;100.00;100222.76;1741882;81;21089;-59
2022/07/17 04:24:06;;;;;;;11.43;10.32;;;;;;;28.63;100.00;100221.80;1760093;79;21082;-57
2022/07/17 04:26:34;;;;;;;10.60;9.53;;;;;;;29.10;100.00;100227.67;1739130;81;20981;-64
2022/07/17 04:29:03;;;;;;;11.38;10.23;;;;;;;29.63;100.00;100225.48;1727110;82;21420;-59
2022/07/17 04:31:30;;;;;;;10.98;9.75;;;;;;;30.09;100.00;100221.47;1751307;81;21018;-58
2022/07/17 04:33:57;;;;;;;10.40;9.40;;;;;;;30.30;100.00;100225.69;1727200;82;20973;-58
2022/07/17 04:36:25;;;;;;;11.45;10.25;;;;;;;30.48;100.00;100221.11;1720898;82;21330;-64
2022/07/17 04:38:52;;;;;;;12.45;10.10;;;;;;;30.46;100.00;100224.13;1733400;81;21020;-59
2022/07/17 04:41:19;;;;;;;9.68;8.70;;;;;;;30.67;100.00;100228.30;1726918;82;21075;-57
2022/07/17 04:43:46;;;;;;;10.75;9.75;;;;;;;31.05;100.00;100231.66;1751195;81;21468;-58
2022/07/17 04:46:14;;;;;;;10.23;8.48;;;;;;;30.59;100.00;100237.73;1747261;81;21547;-61
2022/07/17 04:48:40;;;;;;;12.00;10.80;;;;;;;29.62;100.00;100233.28;1727497;81;21287;-64
2022/07/17 04:51:09;;;;;;;12.18;11.00;;;;;;;28.71;100.00;100243.86;1747652;81;20997;-60
2022/07/17 04:53:37;;;;;;;11.45;10.35;;;;;;;27.95;100.00;100244.97;1727821;82;21009;-57
2022/07/17 04:56:05;;;;;;;13.00;10.72;;;;;;;27.40;100.00;100244.94;1728869;81;21066;-57
2022/07/17 04:58:31;;;;;;;10.93;9.93;;;;;;;27.46;100.00;100237.59;1728211;81;21013;-65
2022/07/17 05:00:59;;;;;;;11.22;10.13;;;;;;;28.24;100.00;100234.46;1727233;82;22215;-59
2022/07/17 05:03:26;;;;;;;10.85;9.75;;;;;;;28.83;100.00;100238.76;1728602;81;21095;-57
2022/07/17 05:05:53;;;;;;;10.95;9.58;;;;;;;29.52;100.00;100238.92;1714110;80;21074;-57
2022/07/17 05:08:22;;;;;;;9.53;8.63;;;;;;;29.94;100.00;100233.45;1732320;80;21000;-64
2022/07/17 05:10:48;;;;;;;11.48;9.10;;;;;;;30.33;100.00;100231.00;1732680;80;20974;-58
2022/07/17 05:13:16;;;;;;;9.03;8.13;;;;;;;30.81;100.00;100240.83;1736938;81;21510;-58
2022/07/17 05:15:44;;;;;;;9.25;8.35;;;;;;;30.82;99.85;100237.02;1743443;80;20948;-58
2022/07/17 05:18:12;;;;;;;10.58;9.58;;;;;;;30.40;95.19;100234.02;1729149;80;21476;-56
2022/07/17 05:20:40;;;;;;;10.15;9.15;;;;;;;29.80;100.00;100234.13;1723865;81;21557;-63
2022/07/17 05:23:07;;;;;;;9.90;8.90;;;;;;;29.23;100.00;100240.20;1730037;80;21815;-56
2022/07/17 05:25:35;;;;;;;11.48;10.28;;;;;;;28.80;100.00;100235.34;1733993;81;21160;-57
2022/07/17 05:28:03;;;;;;;9.65;8.20;;;;;;;29.11;100.00;100231.92;1734604;81;21070;-57
2022/07/17 05:30:30;;;;;;;8.43;7.20;;;;;;;30.02;100.00;100231.33;1731043;81;20986;-57
2022/07/17 05:32:58;;;;;;;8.38;7.58;;;;;;;30.73;98.37;100235.10;1737503;81;21482;-56
2022/07/17 05:35:25;;;;;;;7.72;6.92;;;;;;;30.86;89.55;100236.61;1729534;81;21952;-57
2022/07/17 05:37:52;;;;;;;7.72;6.58;;;;;;;31.12;92.82;100237.34;1736177;81;21170;-57
2022/07/17 05:40:19;;;;;;;6.53;5.85;;;;;;;31.49;74.23;100233.13;1728835;81;20984;-57
2022/07/17 05:42:47;;;;;;;7.03;6.25;;;;;;;31.60;70.69;100229.52;1732998;80;21030;-60
2022/07/17 05:45:16;;;;;;;5.97;5.37;;;;;;;32.17;72.43;100224.98;1739752;81;21136;-57
2022/07/17 05:47:44;;;;;;;6.58;5.75;;;;;;;33.09;62.22;100222.66;1730957;81;21311;-56
2022/07/17 05:50:12;;;;;;;7.35;5.28;;;;;;;33.39;57.41;100213.80;1737623;81;21064;-56
2022/07/17 05:52:40;;;;;;;7.12;6.03;;;;;;;33.68;53.93;100212.56;1727323;80;21045;-58
2022/07/17 05:55:09;;;;;;;7.92;5.83;;;;;;;33.85;53.06;100205.00;1748387;80;21097;-57
2022/07/17 05:57:36;;;;;;;6.47;5.50;;;;;;;33.89;53.00;100202.41;1740723;81;20995;-58
2022/07/17 06:00:05;;;;;;;5.87;5.28;;;;;;;34.24;53.13;100208.64;1731286;80;21104;-57
2022/07/17 06:02:35;;;;;;;9.38;5.20;;;;;;;34.90;53.15;100210.84;1737702;81;21080;-58
2022/07/17 06:05:04;;;;;;;6.25;5.10;;;;;;;35.44;45.75;100210.25;1724424;80;21083;-58
2022/07/17 06:07:31;;;;;;;5.40;4.90;;;;;;;35.40;45.45;100216.16;1741876;81;21987;-56
2022/07/17 06:09:59;;;;;;;6.22;5.15;;;;;;;35.41;44.81;100215.01;1740177;80;20983;-58
2022/07/17 06:12:27;;;;;;;6.00;5.35;;;;;;;35.82;45.34;100215.58;1744716;80;21030;-57
2022/07/17 06:14:55;;;;;;;5.70;5.12;;;;;;;36.43;43.78;100210.84;1701268;82;21165;-58
2022/07/17 06:17:23;;;;;;;5.03;4.53;;;;;;;36.87;41.95;100205.07;1734237;81;20960;-56
2022/07/17 06:19:51;;;;;;;5.58;4.97;;;;;;;37.18;39.91;100200.55;1698144;82;20927;-57
2022/07/17 06:22:19;;;;;;;5.62;5.03;;;;;;;36.83;39.46;100192.00;1742894;80;20977;-57
2022/07/17 06:24:48;;;;;;;6.17;5.57;;;;;;;36.27;39.95;100187.85;1710493;82;21121;-65
2022/07/17 06:27:16;;;;;;;7.22;5.53;;;;;;;35.72;40.97;100198.49;1710316;81;21514;-58
2022/07/17 06:29:44;;;;;;;5.65;4.70;;;;;;;35.38;42.58;100195.38;1711334;83;21200;-56
2022/07/17 06:32:12;;;;;;;5.00;4.50;;;;;;;34.99;41.22;100197.94;1687231;83;20962;-55
2022/07/17 06:34:40;;;;;;;7.00;4.72;;;;;;;34.70;42.52;100191.00;1722662;82;20968;-57
2022/07/17 06:37:07;;;;;;;6.83;5.20;;;;;;;34.64;43.54;100182.91;1749125;80;21054;-56
2022/07/17 06:39:35;;;;;;;5.15;4.42;;;;;;;34.73;43.27;100180.02;1746167;80;21165;-57
2022/07/17 06:42:02;;;;;;;5.50;5.00;;;;;;;34.64;42.77;100174.78;1718188;81;21076;-56
2022/07/17 06:44:30;;;;;;;5.30;4.80;;;;;;;34.60;41.49;100174.69;1728369;81;21021;-59
2022/07/17 06:46:57;;;;;;;6.33;5.00;;;;;;;34.36;41.40;100172.06;1723885;81;21403;-65
2022/07/17 06:49:24;;;;;;;6.67;5.03;;;;;;;34.21;42.31;100172.26;1727937;81;21000;-57
2022/07/17 06:51:52;;;;;;;6.03;5.05;;;;;;;34.04;42.62;100173.32;1711310;82;21156;-56
2022/07/17 06:54:19;;;;;;;7.80;5.75;;;;;;;34.08;43.51;100175.56;1714139;81;21111;-55
2022/07/17 06:56:46;;;;;;;6.12;5.40;;;;;;;34.13;43.75;100172.63;1725357;81;20991;-56
2022/07/17 06:59:13;;;;;;;6.03;5.33;;;;;;;34.50;44.46;100171.70;1725166;82;22144;-55
2022/07/17 07:01:40;;;;;;;6.35;5.47;;;;;;;35.02;43.90;100165.31;1717179;82;21052;-56
2022/07/17 07:04:07;;;;;;;5.87;5.28;;;;;;;35.28;42.28;100176.97;1719569;81;21510;-55
2022/07/17 07:06:35;;;;;;;5.37;4.28;;;;;;;35.54;42.11;100181.28;1713313;81;21513;-57
2022/07/17 07:09:02;;;;;;;7.08;5.00;;;;;;;35.99;42.81;100184.02;1724147;82;21074;-60
2022/07/17 07:11:28;;;;;;;5.90;5.00;;;;;;;36.65;40.67;100177.33;1696801;84;21504;-56
2022/07/17 07:13:56;;;;;;;5.75;5.08;;;;;;;37.24;38.21;100172.70;1723841;82;21560;-55
2022/07/17 07:16:24;;;;;;;5.28;4.75;;;;;;;37.31;36.91;100177.44;1698685;84;21872;-55
2022/07/17 07:18:51;;;;;;;5.37;4.58;;;;;;;37.33;36.76;100167.58;1723572;82;21125;-56
2022/07/17 07:21:18;;;;;;;7.95;4.08;;;;;;;37.16;36.89;100164.79;1687254;84;21412;-62
2022/07/17 07:23:46;;;;;;;4.35;2.83;;;;;;;37.12;36.91;100166.09;1723686;82;21458;-55
2022/07/17 07:26:13;;;;;;;3.58;3.02;;;;;;;37.33;36.04;100163.50;1724648;82;20980;-57
2022/07/17 07:28:40;;;;;;;4.42;3.00;;;;;;;37.75;34.97;100167.41;1696802;82;21802;-59
2022/07/17 07:31:10;;;;;;;4.12;2.70;;;;;;;38.29;33.80;100163.97;1722010;82;21079;-56
2022/07/17 07:33:38;;;;;;;3.62;2.60;;;;;;;38.69;31.40;100165.38;1694769;82;21033;-62
2022/07/17 07:36:05;;;;;;;5.05;3.60;;;;;;;38.76;32.50;100170.69;1694260;82;21360;-57
2022/07/17 07:38:32;;;;;;;3.50;2.47;;;;;;;38.82;30.88;100169.97;1688480;82;21112;-56
2022/07/17 07:41:00;;;;;;;3.10;2.60;;;;;;;38.77;30.99;100162.13;1703231;82;22236;-55
2022/07/17 07:43:27;;;;;;;4.28;2.75;;;;;;;38.79;29.98;100163.91;1689077;82;21057;-65
2022/07/17 07:45:54;;;;;;;3.20;2.55;;;;;;;38.75;30.38;100152.75;1696843;82;21495;-56
2022/07/17 07:48:22;;;;;;;6.53;2.85;;;;;;;38.76;29.58;100157.06;1694831;82;21618;-55
2022/07/17 07:50:56;;;;;;;3.45;2.75;;;;;;;38.39;30.10;100154.58;1690601;82;21115;-58
2022/07/17 07:53:24;;;;;;;3.90;3.30;;;;;;;37.80;30.40;100148.03;1707919;81;21145;-55
2022/07/17 07:55:51;;;;;;;17.85;12.10;;;;;;;37.28;31.74;100153.73;1693584;84;20940;-57
2022/07/17 07:58:19;;;;;;;5.45;3.92;;;;;;;37.00;33.16;100145.34;1723039;82;21168;-54
2022/07/17 08:00:48;;;;;;;3.98;2.77;;;;;;;37.28;31.68;100142.05;1687875;84;21020;-56
2022/07/17 08:03:15;;;;;;;3.87;2.47;;;;;;;37.04;31.87;100137.81;1688463;82;21265;-55
2022/07/17 08:05:45;;;;;;;3.62;2.80;;;;;;;36.57;32.93;100138.98;1718914;82;20955;-56
2022/07/17 08:08:12;;;;;;;5.35;3.98;;;;;;;35.97;33.34;100141.49;1755898;80;20920;-54
2022/07/17 08:10:41;;;;;;;5.28;2.98;;;;;;;35.54;34.10;100146.03;1760933;80;21007;-64
2022/07/17 08:13:09;;;;;;;4.58;3.30;;;;;;;35.29;34.62;100146.02;1756178;80;20988;-57
2022/07/17 08:15:37;;;;;;;4.35;3.33;;;;;;;35.33;35.20;100146.30;1761789;80;21013;-59
2022/07/17 08:18:04;;;;;;;6.22;2.60;;;;;;;35.34;34.81;100138.95;1725063;81;21855;-55
2022/07/17 08:20:33;;;;;;;4.80;3.20;;;;;;;35.33;36.14;100138.17;1789310;78;20931;-58
2022/07/17 08:23:01;;;;;;;9.68;4.83;;;;;;;35.67;34.90;100138.55;1768052;79;21583;-56
2022/07/17 08:25:28;;;;;;;5.80;4.12;;;;;;;35.80;33.50;100138.64;1787709;78;21814;-63
2022/07/17 08:27:55;;;;;;;6.45;4.42;;;;;;;35.47;34.47;100135.58;1766561;79;21030;-56
2022/07/17 08:30:22;;;;;;;3.40;2.62;;;;;;;35.40;34.52;100137.55;1769537;79;21110;-56
2022/07/17 08:32:49;;;;;;;3.70;2.67;;;;;;;35.40;35.07;100132.13;1778379;78;20999;-56
2022/07/17 08:35:16;;;;;;;4.08;2.75;;;;;;;35.47;34.63;100130.94;1761203;79;21143;-55
2022/07/17 08:37:49;;;;;;;3.90;2.70;;;;;;;35.90;34.89;100131.07;1769416;79;21081;-57
2022/07/17 08:40:23;;;;;;;3.17;2.35;;;;;;;36.35;33.31;100129.63;1770618;79;21025;-56
2022/07/17 08:42:50;;;;;;;4.47;3.72;;;;;;;36.52;33.21;100119.67;1763661;79;21851;-62
2022/07/17 08:45:17;;;;;;;7.85;5.35;;;;;;;36.89;32.95;100120.48;1775097;79;22238;-56
2022/07/17 08:47:45;;;;;;;8.28;5.65;;;;;;;36.87;32.77;100120.08;1757193;78;21549;-58
2022/07/17 08:50:13;;;;;;;8.70;4.97;;;;;;;36.76;32.33;100128.05;1757676;80;21330;-56
2022/07/17 08:52:42;;;;;;;6.42;4.25;;;;;;;36.74;33.69;100127.61;1758156;78;21458;-57
2022/07/17 08:55:13;;;;;;;6.78;4.28;;;;;;;37.22;32.36;100128.78;1785471;78;21154;-55
2022/07/17 08:57:41;;;;;;;4.97;3.67;;;;;;;37.13;31.77;100134.28;1774321;80;21045;-56
2022/07/17 09:00:10;;;;;;;4.37;2.80;;;;;;;37.15;32.31;100131.39;1765489;78;21370;-56
2022/07/17 09:02:38;;;;;;;3.35;2.45;;;;;;;37.01;32.32;100140.13;1788174;79;21011;-65
2022/07/17 09:05:08;;;;;;;4.67;2.50;;;;;;;36.65;32.05;100132.52;1758741;78;21534;-55
2022/07/17 09:07:45;;;;;;;6.70;4.83;;;;;;;36.72;33.58;100127.20;1772782;79;21189;-57
2022/07/17 09:10:12;;;;;;;6.67;4.28;;;;;;;36.95;32.27;100125.28;1756660;79;21036;-56
2022/07/17 09:12:40;;;;;;;7.12;4.12;;;;;;;37.11;31.19;100127.06;1777732;78;21061;-65
2022/07/17 09:15:19;;;;;;;7.53;5.05;;;;;;;37.27;30.35;100127.67;1771844;78;21820;-56
2022/07/17 09:17:54;;;;;;;5.90;4.47;;;;;;;37.63;30.71;100123.55;1783074;79;21425;-55
2022/07/17 09:20:22;;;;;;;5.83;4.10;;;;;;;38.15;29.89;100115.59;1777312;79;21158;-58
2022/07/17 09:23:00;;;;;;;4.60;2.77;;;;;;;38.34;28.99;100119.53;1784571;79;21420;-55
2022/07/17 09:25:38;;;;;;;7.20;4.33;;;;;;;38.28;28.19;100119.63;1767576;79;20929;-56
2022/07/17 09:28:06;;;;;;;6.55;4.10;;;;;;;38.23;28.06;100122.70;1767314;79;21035;-65
2022/07/17 09:30:40;;;;;;;5.97;4.20;;;;;;;38.41;27.91;100119.58;1780957;78;21490;-57
2022/07/17 09:33:14;;;;;;;6.37;4.25;;;;;;;38.42;28.01;100119.02;1767723;78;21249;-58
2022/07/17 09:35:53;;;;;;;6.58;4.50;;;;;;;38.41;26.53;100123.66;1771637;79;20932;-55
2022/07/17 09:38:33;;;;;;;7.03;4.95;;;;;;;38.55;26.77;100117.56;1777517;79;21113;-56
2022/07/17 09:41:11;;;;;;;;;;;;;;;38.87;26.31;100117.87;1756895;80;21064;-56
2022/07/17 09:43:52;;;;;;;5.10;3.10;;;;;;;38.97;24.75;100121.03;1751201;80;20212;-55
2022/07/17 09:46:28;;;;;;;5.58;3.40;;;;;;;39.08;25.03;100121.89;1778833;80;21714;-58
2022/07/17 09:49:04;;;;;;;5.47;3.50;;;;;;;39.37;24.83;100114.11;1722801;81;21015;-55
2022/07/17 09:51:37;;;;;;;4.78;3.37;;;;;;;39.31;24.58;100117.57;1765977;79;20896;-55
2022/07/17 09:54:06;;;;;;;4.15;2.30;;;;;;;38.99;26.07;100105.88;1757125;79;21765;-63
2022/07/17 09:56:36;;;;;;;4.70;2.67;;;;;;;38.96;26.92;100114.03;1778425;79;21430;-56
2022/07/17 09:59:10;;;;;;;4.22;2.70;;;;;;;39.18;26.60;100107.55;1765841;78;21806;-56
2022/07/17 10:01:40;;;;;;;4.60;3.10;;;;;;;39.39;27.29;100104.95;1769559;78;20995;-56
2022/07/17 10:04:07;;;;;;;4.57;3.00;;;;;;;39.34;27.04;100104.55;1765548;78;21533;-56
2022/07/17 10:06:34;;;;;;;4.50;3.12;;;;;;;39.47;26.57;100100.89;1772042;79;21376;-55
2022/07/17 10:09:02;;;;;;;5.50;2.90;;;;;;;39.65;26.82;100094.34;1782906;78;21069;-55
2022/07/17 10:11:32;;;;;;;4.87;2.95;;;;;;;39.73;25.83;100091.09;1764690;78;21346;-56
2022/07/17 10:14:08;;;;;;;4.03;2.90;;;;;;;39.66;25.45;100086.94;1760841;78;20968;-61
2022/07/17 10:16:38;;;;;;;4.65;2.42;;;;;;;39.58;24.84;100089.44;1762334;78;21477;-60
2022/07/17 10:19:21;;;;;;;3.70;2.40;;;;;;;39.48;24.45;100088.84;1774659;78;21105;-55
2022/07/17 10:21:59;;;;;;;2.62;1.77;;;;;;;39.40;24.45;100088.00;1791745;78;21536;-61
2022/07/17 10:24:27;;;;;;;3.75;2.05;;;;;;;39.39;23.91;100093.27;1759072;78;21996;-56
2022/07/17 10:26:55;;;;;;;2.45;1.98;;;;;;;39.43;23.93;100088.60;1774249;78;21531;-58
2022/07/17 10:29:34;;;;;;;3.80;2.30;;;;;;;39.49;23.69;100097.98;1781230;79;21116;-54
2022/07/17 10:32:08;;;;;;;3.58;2.40;;;;;;;39.51;23.58;100094.28;1774364;78;21046;-63
2022/07/17 10:34:48;;;;;;;3.75;2.30;;;;;;;39.57;23.89;100095.48;1784315;79;21963;-55
2022/07/17 10:37:39;;;;;;;3.10;2.37;;;;;;;39.56;23.83;100093.93;1788746;79;21333;-55
2022/07/17 10:40:18;;;;;;;4.22;2.40;;;;;;;39.38;23.49;100099.30;1763820;80;21784;-55
2022/07/17 10:43:04;;;;;;;5.87;2.12;;;;;;;39.32;24.13;100099.45;1758041;79;21016;-55
2022/07/17 10:45:39;;;;;;;3.67;2.20;;;;;;;39.29;24.89;100104.92;1760557;80;21036;-55
2022/07/17 10:48:14;;;;;;;2.77;2.00;;;;;;;39.33;24.29;100096.95;1782457;78;21054;-55
2022/07/17 10:50:53;;;;;;;4.80;2.05;;;;;;;39.24;24.24;100099.81;1768954;78;21954;-62
2022/07/17 10:53:30;;;;;;;4.50;2.40;;;;;;;39.10;24.57;100104.59;1768528;78;21031;-56
2022/07/17 10:56:04;;;;;;;2.85;1.98;;;;;;;38.94;24.82;100103.48;1769647;79;21007;-58
2022/07/17 10:58:42;;;;;;;3.00;1.80;;;;;;;38.81;25.41;100104.97;1764255;79;21552;-56
2022/07/17 11:01:17;;;;;;;3.60;2.12;;;;;;;38.75;25.68;100109.16;1774900;78;21140;-56
2022/07/17 11:03:52;;;;;;;4.35;2.25;;;;;;;38.62;25.65;100099.15;1764511;78;21289;-56
2022/07/17 11:06:28;;;;;;;5.17;2.15;;;;;;;38.33;25.91;100098.86;1782128;78;20979;-57
2022/07/17 11:09:08;;;;;;;5.53;2.33;;;;;;;38.19;27.13;100093.30;1790276;78;21558;-59
2022/07/17 11:11:51;;;;;;;4.83;2.45;;;;;;;38.26;26.82;100085.17;1789664;79;20967;-57
2022/07/17 11:14:23;;;;;;;3.20;2.10;;;;;;;38.46;26.73;100087.16;1768832;80;21229;-56
2022/07/17 11:16:56;;;;;;;3.52;2.20;;;;;;;38.59;25.73;100078.10;1764761;80;21126;-56
2022/07/17 11:19:42;;;;;;;5.12;2.37;;;;;;;38.59;26.29;100078.88;1774770;80;20983;-57
2022/07/17 11:22:11;;;;;;;3.42;2.30;;;;;;;38.49;26.53;100071.98;1767965;78;21381;-55